Bucak, Turkey
Current Conditions -  °F | °C
As of 6:50 AM on Sunday 21 Dec 2014 (Local Time) from LTFC Reporting Station
Haze Haze  
Wind Chill: 36°   Ceiling: Unl
Heat Index: 36°   Visibility: 1.5mi
Dew Point: 36°   Wind: 3mph
Humidity: 100%   Direction: 50°NE
Pressure: 30.15"   Gusts: NA
Location:  37.46°N, 30.58°E
Report Text: LTFC 210350Z 05003KT 010V090 2500 BR NSC 02/02 Q1021
Loading
Personal Weather Stations






























Interactive Weather Map New forecast layout! Learn more

10-Day Weather Forecast

Advertisements
Track Severe Weather on mobile